Overview Statistics Trail Chart Weather Telemetry Raw packets
 

This is the latest recevied weather packets stored in our database for station/object OK1LPD-5. If no packets are shown the sender has not sent any weather packets the latest 10 day(s).

<< 1 2 3 4 >>
Time Temp. Humidity Pressure Rain* Wind** Luminosity Snow
1788572409 16.67° C 99% 1008.1 hPa 0 mm - - -
1788571810 16.67° C 99% 1007.8 hPa 0 mm - - -
1788571209 16.67° C 99% 1007.7 hPa 0 mm - - -
1788570635 17.22° C 99% 1007.8 hPa 0 mm - - -
1788570009 17.78° C 99% 1007.7 hPa 0 mm - - -
1788569408 18.33° C 98% 1007.7 hPa 0 mm - - -
1788568808 18.89° C 95% 1007.5 hPa 0 mm - - -
1788568209 18.89° C 94% 1007.3 hPa 0 mm - - -
1788567609 18.89° C 94% 1007.3 hPa 0 mm - - -
1788567008 19.44° C 94% 1007.2 hPa 0 mm - - -
1788566410 19.44° C 94% 1006.7 hPa 0 mm - - -
1788565809 18.89° C 99% 1006.6 hPa 0 mm - - -
1788565209 17.78° C 99% 1005.4 hPa 0 mm - - -
1788564609 17.78° C 99% 1005.3 hPa 0 mm - - -
1788564010 17.78° C 99% 1005.1 hPa 0 mm - - -
1788563408 17.78° C 99% 1004.8 hPa 0 mm - - -
1788562809 17.78° C 99% 1004.5 hPa 0 mm - - -
1788562209 18.33° C 99% 1004.4 hPa 0 mm - - -
1788561609 18.33° C 99% 1004.4 hPa 0 mm - - -
1788561009 18.89° C 99% 1004.2 hPa 0 mm - - -
1788560409 18.89° C 99% 1004 hPa 0 mm - - -
1788559808 18.89° C 99% 1003.8 hPa 0 mm - - -
1788559212 18.89° C 99% 1003.6 hPa 0 mm - - -
1788558610 18.33° C 99% 1003.5 hPa 0 mm - - -
1788558010 18.33° C 99% 1003.5 hPa 0 mm - - -

* Rain latest hour (hover to see other rain measurements)
** Current wind speed in m/s (hover to see current wind gust speed)